Conrad, MT

6:35 PM MDT on July 31, 2015 (GMT -0600)
CENTROL Conrad | | Change Station
CLOSE
Current Station
Personal Weather Station
Location: Conrad, MT
Elevation: 3517 ft
Nearby Weather Stations
Active Advisory: Fire Weather Watch

Elev 3517 ft 48.16 °N, 111.95 °W | Updated 20 seconds ago

Clear
Clear
89.7 °F
Feels Like 86 °F
N
0.0
Wind Variable Wind from SSW
Gusts 4.0 mph

Today
High -- | Low -- °F
--% Chance of Precip.
Yesterday
High -- | Low -- °F
Precip. -- in
6:01 AM 9:05 PM
Full, 100% visible
Pressure 29.98 in
Visibility 10.0 miles
Clouds Clear
Heat Index 86 °F
Dew Point 31 °F
Humidity 12%
Rainfall 0.00 in
Snow Depth Not available.
UV 3 out of 12
Pollen 6.50 out of 12
Air Quality Not available.
Flu Activity Not available.
METAR KCTB 312356Z AUTO 30011KT 10SM CLR 33/M04 A3007 RMK AO2 SLP150 T03281039 10344 20300 58017

More Conditions Fewer Conditions

Pressure 29.98 in
Visibility 10.0 miles
Clouds Clear
Heat Index 86 °F
Dew Point 31 °F
Humidity 12%
Rainfall 0.00 in
Snow Depth Not available.
UV 3 out of 12
Pollen 6.50 out of 12
Air Quality Not available.
Flu Activity Not available.
METAR KCTB 312356Z AUTO 30011KT 10SM CLR 33/M04 A3007 RMK AO2 SLP150 T03281039 10344 20300 58017

More Conditions Fewer Conditions

10-Day Weather Forecast

×

Almanac

Astronomy

Jul. 31, 2015 Rise Set
Actual Time
Civil Twilight
Nautical Twilight
Astronomical Twilight
Moon
Length of Visible Light
Length of Day
Tomorrow will be .
, % of the Moon is Illuminated

Today's Extremes

State Highs State Lows

Community

WunderPhotos

Upload Photos

1,842,781 photos uploaded!

WunderBlogs® & News

Nearby

Air Quality

  Air Quality AQ Index Pollutant
Not available.

Snow Depth

Station Depth Elevation

Earthquake Activity

City Distance Mag. Time & Date
Minimum magnitude displayed is 2.5.

Coastal Water Temperatures

Place Temperature

Stations

Nearby Weather Stations

Station Location Temp. Windchill Dew Point Humidity Wind Precip. Elev Updated Type
                   
Fire Weather Watch
Statement as of 3:13 PM MDT on July 31, 2015

... Fire Weather Watch remains in effect from Saturday afternoon
through Saturday evening for extremely low humidity and breezy winds in
addition to hot temperatures and high Haines index for fire
weather zones 112 and 114...

* affected area... fire weather zone 112. Fire weather zone 114.

* Wind... west winds 10 to 15 mph with gusts of 20 to 30 mph.

* Humidity... minimum humidity of 8 to 15 percent.

* Other impacts... the Haines index should increase to a 5 or
6... meaning there is a high potential of large fire growth on
any new or existing fires.

Precautionary/preparedness actions...

A Fire Weather Watch means that critical fire weather conditions
are possible. A combination of gusty winds... low relative
humidity... and warm temperatures will create high fire growth
potential.